createdAt,value
2017-10-15T00:01:53.833Z,29.85
2017-10-15T00:04:22.603Z,28.45
2017-10-15T00:06:50.647Z,26.42
2017-10-15T00:09:18.425Z,26.17
2017-10-15T00:11:46.944Z,31.02
2017-10-15T00:14:15.632Z,28.23
2017-10-15T00:16:45.910Z,28.60
2017-10-15T00:19:15.213Z,28.38
2017-10-15T00:21:43.376Z,28.17
2017-10-15T00:24:13.265Z,28.65
2017-10-15T00:26:42.128Z,29.17
2017-10-15T00:29:10.014Z,27.25
2017-10-15T00:31:38.866Z,26.15
2017-10-15T00:34:07.106Z,28.60
2017-10-15T00:36:34.597Z,24.90
2017-10-15T00:39:02.090Z,25.12
2017-10-15T00:41:29.551Z,25.98
2017-10-15T00:43:57.033Z,26.37
2017-10-15T00:46:24.496Z,28.70
2017-10-15T00:48:51.978Z,24.25
2017-10-15T00:51:19.441Z,26.70
2017-10-15T00:53:46.895Z,25.00
2017-10-15T00:56:14.351Z,26.10
2017-10-15T00:58:41.806Z,26.02
2017-10-15T01:01:10.051Z,26.00
2017-10-15T01:03:37.510Z,27.52
2017-10-15T01:06:04.974Z,29.17
2017-10-15T01:08:32.438Z,28.40
2017-10-15T01:10:59.927Z,29.05
2017-10-15T01:13:27.398Z,29.17
2017-10-15T01:15:54.895Z,29.83
2017-10-15T01:18:22.390Z,30.00
2017-10-15T01:20:49.844Z,27.85
2017-10-15T01:23:17.314Z,30.95
2017-10-15T01:25:44.791Z,33.30
2017-10-15T01:28:12.251Z,34.78
2017-10-15T01:30:39.719Z,34.88
2017-10-15T01:33:07.176Z,31.90
2017-10-15T01:35:34.675Z,38.28
2017-10-15T01:38:02.161Z,35.38
2017-10-15T01:40:29.613Z,36.13
2017-10-15T01:42:57.071Z,38.20
2017-10-15T01:45:24.570Z,35.50
2017-10-15T01:47:52.043Z,38.88
2017-10-15T01:50:19.512Z,40.22
2017-10-15T01:52:46.981Z,42.33
2017-10-15T01:55:15.210Z,42.88
2017-10-15T01:57:42.667Z,43.53
2017-10-15T02:00:10.115Z,42.13
2017-10-15T02:02:37.606Z,38.53
2017-10-15T02:05:05.061Z,39.17
2017-10-15T02:07:32.546Z,38.03
2017-10-15T02:09:59.999Z,41.42
2017-10-15T02:12:28.260Z,39.42
2017-10-15T02:14:56.491Z,39.95
2017-10-15T02:17:23.954Z,43.97
2017-10-15T02:19:51.416Z,44.22
2017-10-15T02:22:18.879Z,43.47
2017-10-15T02:24:46.339Z,41.30
2017-10-15T02:27:13.822Z,45.22
2017-10-15T02:29:41.308Z,42.53
2017-10-15T02:32:09.526Z,46.58
2017-10-15T02:34:36.995Z,43.85
2017-10-15T02:37:04.463Z,42.25
2017-10-15T02:39:31.949Z,41.60
2017-10-15T02:42:00.179Z,44.40
2017-10-15T02:44:27.655Z,40.65
2017-10-15T02:46:55.121Z,43.83
2017-10-15T02:49:22.573Z,44.35
2017-10-15T02:51:50.031Z,42.78
2017-10-15T02:54:17.496Z,43.60
2017-10-15T02:56:45.731Z,45.03
2017-10-15T02:59:13.197Z,45.40
2017-10-15T03:01:40.651Z,44.88
2017-10-15T03:04:08.116Z,46.15
2017-10-15T03:06:35.571Z,45.25
2017-10-15T03:09:03.043Z,45.08
2017-10-15T03:11:30.511Z,45.85
2017-10-15T03:13:58.734Z,44.05
2017-10-15T03:16:26.203Z,45.03
2017-10-15T03:18:53.698Z,45.15
2017-10-15T03:21:21.171Z,45.30
2017-10-15T03:23:49.411Z,45.60
2017-10-15T03:26:16.891Z,45.38
2017-10-15T03:28:44.355Z,46.72
2017-10-15T03:31:11.872Z,42.13
2017-10-15T03:33:39.351Z,48.25
2017-10-15T03:36:06.812Z,48.08
2017-10-15T03:38:34.265Z,44.45
2017-10-15T03:41:01.734Z,42.35
2017-10-15T03:43:29.208Z,44.40
2017-10-15T03:45:56.767Z,44.15
2017-10-15T03:48:24.218Z,45.00
2017-10-15T03:50:51.693Z,43.92
2017-10-15T03:53:19.152Z,45.10
2017-10-15T03:55:46.651Z,44.58
2017-10-15T03:58:14.730Z,43.58
2017-10-15T04:00:42.207Z,44.17
2017-10-15T04:03:10.455Z,43.58
2017-10-15T04:05:37.943Z,42.13
2017-10-15T04:08:06.201Z,41.53
2017-10-15T04:10:33.678Z,43.78
2017-10-15T04:13:01.956Z,41.80
2017-10-15T04:15:29.435Z,42.15
2017-10-15T04:17:59.343Z,44.88
2017-10-15T04:20:26.932Z,44.20
2017-10-15T04:22:54.429Z,46.97
2017-10-15T04:25:21.902Z,42.80
2017-10-15T04:27:49.368Z,44.30
2017-10-15T04:30:16.828Z,42.17
2017-10-15T04:32:44.312Z,41.60
2017-10-15T04:35:11.787Z,42.72
2017-10-15T04:37:39.286Z,42.72
2017-10-15T04:40:06.762Z,39.28
2017-10-15T04:42:34.249Z,39.97
2017-10-15T04:45:01.747Z,40.85
2017-10-15T04:47:29.218Z,41.88
2017-10-15T04:49:56.753Z,43.28
2017-10-15T04:52:24.232Z,38.67
2017-10-15T04:54:52.488Z,44.05
2017-10-15T04:57:19.970Z,40.03
2017-10-15T04:59:47.433Z,40.70
2017-10-15T05:02:15.183Z,38.35
2017-10-15T05:04:42.647Z,40.58
2017-10-15T05:07:10.115Z,41.83
2017-10-15T05:09:37.619Z,38.88
2017-10-15T05:12:05.102Z,44.42
2017-10-15T05:14:33.371Z,42.83
2017-10-15T05:17:00.844Z,44.13
2017-10-15T05:19:28.354Z,45.80
2017-10-15T05:21:55.838Z,40.85
2017-10-15T05:24:23.318Z,43.35
2017-10-15T05:26:50.786Z,45.85
2017-10-15T05:29:18.242Z,44.47
2017-10-15T05:31:45.713Z,42.83
2017-10-15T05:34:13.191Z,41.30
2017-10-15T05:36:40.658Z,40.47
2017-10-15T05:39:08.204Z,40.85
2017-10-15T05:41:35.688Z,39.30
2017-10-15T05:44:03.166Z,43.28
2017-10-15T05:46:31.423Z,43.95
2017-10-15T05:48:58.916Z,43.30
2017-10-15T05:51:26.445Z,41.50
2017-10-15T05:53:53.924Z,41.05
2017-10-15T05:56:21.386Z,40.38
2017-10-15T05:58:48.890Z,41.13
2017-10-15T06:01:16.386Z,44.22
2017-10-15T06:03:44.647Z,42.75
2017-10-15T06:06:12.143Z,44.42
2017-10-15T06:08:39.650Z,41.72
2017-10-15T06:11:07.160Z,43.28
2017-10-15T06:13:34.657Z,38.90
2017-10-15T06:16:02.155Z,39.17
2017-10-15T06:18:30.474Z,37.70
2017-10-15T06:20:57.950Z,35.78
2017-10-15T06:23:25.438Z,37.10
2017-10-15T06:25:52.909Z,38.53
2017-10-15T06:28:21.186Z,37.58
2017-10-15T06:30:49.634Z,39.65
2017-10-15T06:33:17.122Z,38.20
2017-10-15T06:35:44.587Z,39.67
2017-10-15T06:38:12.055Z,36.63
2017-10-15T06:40:39.510Z,37.40
2017-10-15T06:43:07.061Z,39.75
2017-10-15T06:45:34.595Z,38.88
2017-10-15T06:48:02.892Z,41.03
2017-10-15T06:50:30.363Z,42.58
2017-10-15T06:52:57.823Z,44.20
2017-10-15T06:55:25.322Z,43.60
2017-10-15T06:57:52.818Z,42.58
2017-10-15T07:00:20.286Z,43.15
2017-10-15T07:02:47.767Z,43.72
2017-10-15T07:05:15.263Z,45.12
2017-10-15T07:07:42.778Z,43.65
2017-10-15T07:10:10.421Z,45.58
2017-10-15T07:12:37.977Z,44.42
2017-10-15T07:15:05.514Z,46.85
2017-10-15T07:17:33.092Z,46.72
2017-10-15T07:20:00.631Z,45.20
2017-10-15T07:22:28.115Z,46.67
2017-10-15T07:24:55.658Z,43.45
2017-10-15T07:27:23.297Z,48.58
2017-10-15T07:29:50.775Z,45.45
2017-10-15T07:32:18.345Z,46.28
2017-10-15T07:34:45.806Z,46.37
2017-10-15T07:37:13.359Z,45.30
2017-10-15T07:39:40.918Z,47.67
2017-10-15T07:42:08.485Z,46.17
2017-10-15T07:44:36.039Z,43.30
2017-10-15T07:47:03.571Z,44.03
2017-10-15T07:49:31.058Z,43.72
2017-10-15T07:51:58.618Z,40.97
2017-10-15T07:54:26.158Z,43.70
2017-10-15T07:56:53.719Z,45.42
2017-10-15T07:59:21.287Z,44.15
2017-10-15T08:01:48.855Z,43.08
2017-10-15T08:04:16.430Z,45.17
2017-10-15T08:06:43.972Z,43.40
2017-10-15T08:09:11.527Z,42.88
2017-10-15T08:11:39.182Z,43.45
2017-10-15T08:14:06.762Z,44.15
2017-10-15T08:16:34.314Z,43.80
2017-10-15T08:19:01.930Z,43.67
2017-10-15T08:21:29.434Z,41.95
2017-10-15T08:23:56.959Z,43.63
2017-10-15T08:26:24.442Z,38.75
2017-10-15T08:28:52.003Z,42.13
2017-10-15T08:31:19.668Z,41.08
2017-10-15T08:33:47.232Z,39.72
2017-10-15T08:36:14.784Z,41.40
2017-10-15T08:38:42.332Z,40.55
2017-10-15T08:41:09.839Z,43.38
2017-10-15T08:43:37.349Z,44.53
2017-10-15T08:46:04.810Z,43.90
2017-10-15T08:48:32.289Z,43.63
2017-10-15T08:50:59.742Z,44.00
2017-10-15T08:53:27.243Z,41.90
2017-10-15T08:55:54.743Z,46.40
2017-10-15T08:58:22.275Z,46.55
2017-10-15T09:00:49.760Z,41.92
2017-10-15T09:03:17.322Z,45.90
2017-10-15T09:05:44.782Z,44.10
2017-10-15T09:08:12.322Z,44.65
2017-10-15T09:10:40.309Z,44.70
2017-10-15T09:13:08.272Z,42.83
2017-10-15T09:15:35.807Z,41.17
2017-10-15T09:18:03.295Z,38.05
2017-10-15T09:20:30.833Z,41.85
2017-10-15T09:22:58.655Z,39.30
2017-10-15T09:25:26.164Z,43.00
2017-10-15T09:27:53.722Z,40.90
2017-10-15T09:30:21.269Z,40.33
2017-10-15T09:32:49.568Z,39.50
2017-10-15T09:35:17.100Z,38.03
2017-10-15T09:37:44.575Z,38.35
2017-10-15T09:40:12.118Z,37.55
2017-10-15T09:42:40.401Z,36.95
2017-10-15T09:45:07.972Z,35.08
2017-10-15T09:47:35.531Z,34.20
2017-10-15T09:50:03.070Z,34.08
2017-10-15T09:52:30.550Z,35.60
2017-10-15T09:54:58.047Z,36.75
2017-10-15T09:57:25.542Z,35.45
2017-10-15T09:59:53.104Z,32.38
2017-10-15T10:02:20.694Z,35.55
2017-10-15T10:04:48.185Z,36.42
2017-10-15T10:07:15.783Z,37.13
2017-10-15T10:09:43.307Z,29.98
2017-10-15T10:12:10.796Z,35.35
2017-10-15T10:14:38.560Z,36.90
2017-10-15T10:17:06.196Z,32.50
2017-10-15T10:19:33.701Z,37.58
2017-10-15T10:22:01.242Z,34.90
2017-10-15T10:24:28.820Z,36.35
2017-10-15T10:26:56.841Z,31.35
2017-10-15T10:29:24.412Z,36.43
2017-10-15T10:31:52.015Z,34.65
2017-10-15T10:34:19.535Z,32.22
2017-10-15T10:36:47.028Z,31.03
2017-10-15T10:39:14.562Z,32.55
2017-10-15T10:41:42.854Z,32.53
2017-10-15T10:44:10.602Z,31.23
2017-10-15T10:46:38.186Z,29.97
2017-10-15T10:49:05.689Z,30.13
2017-10-15T10:51:33.202Z,34.80
2017-10-15T10:54:00.663Z,37.70
2017-10-15T10:56:28.183Z,32.85
2017-10-15T10:58:55.763Z,31.20
2017-10-15T11:01:23.316Z,31.57
2017-10-15T11:03:50.858Z,33.63
2017-10-15T11:06:18.352Z,32.33
2017-10-15T11:08:45.876Z,32.00
2017-10-15T11:11:13.364Z,34.27
2017-10-15T11:13:41.211Z,28.80
2017-10-15T11:16:08.902Z,29.77
2017-10-15T11:18:36.408Z,25.60
2017-10-15T11:21:03.899Z,26.70
2017-10-15T11:23:31.376Z,28.03
2017-10-15T11:25:58.891Z,25.23
2017-10-15T11:28:26.486Z,22.97
2017-10-15T11:30:54.042Z,26.63
2017-10-15T11:33:21.698Z,20.90
2017-10-15T11:35:49.314Z,23.80
2017-10-15T11:38:16.827Z,21.03
2017-10-15T11:40:44.391Z,21.40
2017-10-15T11:43:12.024Z,19.57
2017-10-15T11:45:39.613Z,20.03
2017-10-15T11:48:07.148Z,19.77
2017-10-15T11:50:34.682Z,19.53
2017-10-15T11:53:02.163Z,19.63
2017-10-15T11:55:29.631Z,16.23
2017-10-15T11:57:57.099Z,15.40
2017-10-15T12:00:24.559Z,13.80
2017-10-15T12:02:52.020Z,14.43
2017-10-15T12:05:19.543Z,14.53
2017-10-15T12:07:47.831Z,14.33
2017-10-15T12:10:15.325Z,15.77
2017-10-15T12:12:43.019Z,13.17
2017-10-15T12:15:10.496Z,11.70
2017-10-15T12:17:37.970Z,12.37
2017-10-15T12:20:05.438Z,10.10
2017-10-15T12:22:32.919Z,13.70
2017-10-15T12:25:00.418Z,10.73
2017-10-15T12:27:27.882Z,10.00
2017-10-15T12:29:56.162Z,9.60
2017-10-15T12:32:23.737Z,10.23
2017-10-15T12:34:51.263Z,9.27
2017-10-15T12:37:18.739Z,8.20
2017-10-15T12:39:46.226Z,7.77
2017-10-15T12:42:13.776Z,7.70
2017-10-15T12:44:41.303Z,7.97
2017-10-15T12:47:08.796Z,7.93
2017-10-15T12:49:36.337Z,7.53
2017-10-15T12:52:03.896Z,8.00
2017-10-15T12:54:32.286Z,6.63
2017-10-15T12:56:59.947Z,6.33
2017-10-15T12:59:27.499Z,6.03
2017-10-15T13:01:55.072Z,6.13
2017-10-15T13:04:22.579Z,5.90
2017-10-15T13:06:50.085Z,6.57
2017-10-15T13:09:17.536Z,5.27
2017-10-15T13:11:45.063Z,5.00
2017-10-15T13:14:12.555Z,4.70
2017-10-15T13:16:40.097Z,4.57
2017-10-15T13:19:07.679Z,4.23
2017-10-15T13:21:35.292Z,4.80
2017-10-15T13:24:02.850Z,3.93
2017-10-15T13:26:30.342Z,4.20
2017-10-15T13:28:57.920Z,4.30
2017-10-15T13:31:25.406Z,3.63
2017-10-15T13:33:52.954Z,4.20
2017-10-15T13:36:20.484Z,4.70
2017-10-15T13:38:47.991Z,4.40
2017-10-15T13:41:15.608Z,3.40
2017-10-15T13:43:43.254Z,4.30
2017-10-15T13:46:10.822Z,4.23
2017-10-15T13:48:38.374Z,4.10
2017-10-15T13:51:05.862Z,4.00
2017-10-15T13:53:33.380Z,4.13
2017-10-15T13:56:00.954Z,3.80
2017-10-15T13:58:28.617Z,4.17
2017-10-15T14:00:56.168Z,4.40
2017-10-15T14:03:23.707Z,3.73
2017-10-15T14:05:51.195Z,4.57
2017-10-15T14:08:18.746Z,3.93
2017-10-15T14:10:46.258Z,4.07
2017-10-15T14:13:14.795Z,4.10
2017-10-15T14:15:42.355Z,4.70
2017-10-15T14:18:09.907Z,3.73
2017-10-15T14:20:37.466Z,3.60
2017-10-15T14:23:04.932Z,4.50
2017-10-15T14:25:32.583Z,3.57
2017-10-15T14:28:00.319Z,3.47
2017-10-15T14:30:27.952Z,4.23
2017-10-15T14:32:55.454Z,4.10
2017-10-15T14:35:22.982Z,4.27
2017-10-15T14:37:50.567Z,4.47
2017-10-15T14:40:18.103Z,3.73
2017-10-15T14:42:45.583Z,3.87
2017-10-15T14:45:13.155Z,3.50
2017-10-15T14:47:40.696Z,3.97
2017-10-15T14:50:08.246Z,4.00
2017-10-15T14:52:35.733Z,4.27
2017-10-15T14:55:03.239Z,3.80
2017-10-15T14:57:30.755Z,4.30
2017-10-15T14:59:58.315Z,3.60
2017-10-15T15:02:25.770Z,3.63
2017-10-15T15:04:53.338Z,3.73
2017-10-15T15:07:21.001Z,4.10
2017-10-15T15:09:48.603Z,3.50
2017-10-15T15:12:16.214Z,4.37
2017-10-15T15:14:43.867Z,3.50
2017-10-15T15:17:11.440Z,4.07
2017-10-15T15:19:38.978Z,3.80
2017-10-15T15:22:06.551Z,4.33
2017-10-15T15:24:36.236Z,4.77
2017-10-15T15:27:05.524Z,4.97
2017-10-15T15:29:33.307Z,5.03
2017-10-15T15:32:00.957Z,4.90
2017-10-15T15:34:29.464Z,5.07
2017-10-15T15:36:57.077Z,4.60
2017-10-15T15:39:24.580Z,4.43
2017-10-15T15:41:52.236Z,4.63
2017-10-15T15:44:19.781Z,4.93
2017-10-15T15:46:47.331Z,6.47
2017-10-15T15:49:14.888Z,5.77
2017-10-15T15:51:42.771Z,5.43
2017-10-15T15:54:10.440Z,6.43
2017-10-15T15:56:37.908Z,6.00
2017-10-15T15:59:05.457Z,6.03
2017-10-15T16:01:32.975Z,6.93
2017-10-15T16:04:00.452Z,6.47
2017-10-15T16:06:28.056Z,6.77
2017-10-15T16:08:55.576Z,7.90
2017-10-15T16:11:23.062Z,6.70
2017-10-15T16:13:51.311Z,7.40
2017-10-15T16:16:18.834Z,8.20
2017-10-15T16:18:46.383Z,7.97
2017-10-15T16:21:13.863Z,7.37
2017-10-15T16:23:41.346Z,8.27
2017-10-15T16:26:09.630Z,7.37
2017-10-15T16:28:37.183Z,7.10
2017-10-15T16:31:04.655Z,7.90
2017-10-15T16:33:32.206Z,7.40
2017-10-15T16:35:59.717Z,7.27
2017-10-15T16:38:27.215Z,6.87
2017-10-15T16:40:54.695Z,7.20
2017-10-15T16:43:22.255Z,7.00
2017-10-15T16:45:50.002Z,7.10
2017-10-15T16:48:17.564Z,6.90
2017-10-15T16:50:45.115Z,7.37
2017-10-15T16:53:12.627Z,8.50
2017-10-15T16:55:40.144Z,7.60
2017-10-15T16:58:07.658Z,7.90
2017-10-15T17:00:35.208Z,7.45
2017-10-15T17:03:02.756Z,7.83
2017-10-15T17:05:30.266Z,7.70
2017-10-15T17:07:57.769Z,7.53
2017-10-15T17:10:25.279Z,7.50
2017-10-15T17:12:52.822Z,8.35
2017-10-15T17:15:20.962Z,9.05
2017-10-15T17:17:48.463Z,9.05
2017-10-15T17:20:16.742Z,9.23
2017-10-15T17:22:44.259Z,10.02
2017-10-15T17:25:11.754Z,8.65
2017-10-15T17:27:39.219Z,8.20
2017-10-15T17:30:06.790Z,10.35
2017-10-15T17:32:34.331Z,9.90
2017-10-15T17:35:01.814Z,11.00
2017-10-15T17:37:29.347Z,11.48
2017-10-15T17:39:57.626Z,14.30
2017-10-15T17:42:25.111Z,13.18
2017-10-15T17:44:53.384Z,13.07
2017-10-15T17:47:20.922Z,13.52
2017-10-15T17:49:59.038Z,13.50
2017-10-15T17:52:26.584Z,13.80
2017-10-15T17:54:54.143Z,13.35
2017-10-15T17:57:22.111Z,14.25
2017-10-15T17:59:49.694Z,13.77
2017-10-15T18:02:29.127Z,14.30
2017-10-15T18:04:56.683Z,13.20
2017-10-15T18:07:24.523Z,13.27
2017-10-15T18:09:52.011Z,13.48
2017-10-15T18:12:19.717Z,12.85
2017-10-15T18:14:47.516Z,12.13
2017-10-15T18:17:15.151Z,13.95
2017-10-15T18:19:42.635Z,13.25
2017-10-15T18:22:10.215Z,14.05
2017-10-15T18:24:37.771Z,13.25
2017-10-15T18:27:05.324Z,12.50
2017-10-15T18:29:32.857Z,12.90
2017-10-15T18:32:00.332Z,12.98
2017-10-15T18:34:27.975Z,12.37
2017-10-15T18:36:55.677Z,12.00
2017-10-15T18:39:23.383Z,12.07
2017-10-15T18:41:50.886Z,12.60
2017-10-15T18:44:18.422Z,13.43
2017-10-15T18:46:45.903Z,12.13
2017-10-15T18:49:13.446Z,13.35
2017-10-15T18:51:40.907Z,12.13
2017-10-15T18:54:09.170Z,12.70
2017-10-15T18:56:36.662Z,13.20
2017-10-15T18:59:04.203Z,12.25
2017-10-15T19:01:31.815Z,12.52
2017-10-15T19:03:59.307Z,13.82
2017-10-15T19:06:26.822Z,13.82
2017-10-15T19:08:54.332Z,15.18
2017-10-15T19:11:22.579Z,13.65
2017-10-15T19:13:50.086Z,13.30
2017-10-15T19:16:17.573Z,14.02
2017-10-15T19:18:45.058Z,14.05
2017-10-15T19:21:12.554Z,13.43
2017-10-15T19:23:40.023Z,14.45
2017-10-15T19:26:07.535Z,14.75
2017-10-15T19:28:35.134Z,16.02
2017-10-15T19:31:02.653Z,14.15
2017-10-15T19:33:30.149Z,14.02
2017-10-15T19:35:57.747Z,14.20
2017-10-15T19:38:25.238Z,13.25
2017-10-15T19:40:52.756Z,13.00
2017-10-15T19:43:20.287Z,12.85
2017-10-15T19:45:47.807Z,13.10
2017-10-15T19:48:15.270Z,12.52
2017-10-15T19:50:42.745Z,11.57
2017-10-15T19:53:10.211Z,12.63
2017-10-15T19:55:37.711Z,12.85
2017-10-15T19:58:05.354Z,12.07
2017-10-15T20:00:32.879Z,10.88
2017-10-15T20:03:01.158Z,12.27
2017-10-15T20:05:28.675Z,11.82
2017-10-15T20:07:56.164Z,12.68
2017-10-15T20:10:24.563Z,12.48
2017-10-15T20:12:52.146Z,12.98
2017-10-15T20:15:19.643Z,11.35
2017-10-15T20:17:47.126Z,10.57
2017-10-15T20:20:14.659Z,12.43
2017-10-15T20:22:42.321Z,11.30
2017-10-15T20:25:09.796Z,11.77
2017-10-15T20:27:38.071Z,12.30
2017-10-15T20:30:06.435Z,11.90
2017-10-15T20:32:33.914Z,11.75
2017-10-15T20:35:01.493Z,12.02
2017-10-15T20:37:29.024Z,11.82
2017-10-15T20:39:56.677Z,12.70
2017-10-15T20:42:24.209Z,12.50
2017-10-15T20:44:51.706Z,13.70
2017-10-15T20:47:19.268Z,11.82
2017-10-15T20:49:46.751Z,10.82
2017-10-15T20:52:14.242Z,12.77
2017-10-15T20:54:41.740Z,13.18
2017-10-15T20:57:09.250Z,11.95
2017-10-15T20:59:36.751Z,13.05
2017-10-15T21:02:04.264Z,13.35
2017-10-15T21:04:31.766Z,12.10
2017-10-15T21:07:00.038Z,12.20
2017-10-15T21:09:27.518Z,11.68
2017-10-15T21:11:55.033Z,11.50
2017-10-15T21:14:22.524Z,11.93
2017-10-15T21:16:50.063Z,12.00
2017-10-15T21:19:17.551Z,11.48
2017-10-15T21:21:45.081Z,14.10
2017-10-15T21:24:12.575Z,12.20
2017-10-15T21:26:40.098Z,13.10
2017-10-15T21:29:07.566Z,12.93
2017-10-15T21:31:35.836Z,13.15
2017-10-15T21:34:03.318Z,14.25
2017-10-15T21:36:30.812Z,13.30
2017-10-15T21:38:58.267Z,12.50
2017-10-15T21:41:25.771Z,13.50
2017-10-15T21:43:53.435Z,13.20
2017-10-15T21:46:21.660Z,12.50
2017-10-15T21:48:49.157Z,12.25
2017-10-15T21:51:16.611Z,13.25
2017-10-15T21:53:44.079Z,12.50
2017-10-15T21:56:12.570Z,13.55
2017-10-15T21:58:40.066Z,12.48
2017-10-15T22:01:07.550Z,13.35
2017-10-15T22:03:35.038Z,12.77
2017-10-15T22:06:03.307Z,13.25
2017-10-15T22:08:30.824Z,13.68
2017-10-15T22:10:58.299Z,15.38
2017-10-15T22:13:25.779Z,13.00
2017-10-15T22:15:53.256Z,14.43
2017-10-15T22:18:26.651Z,14.68
2017-10-15T22:20:59.682Z,13.95
2017-10-15T22:23:27.182Z,13.70
2017-10-15T22:25:54.652Z,13.10
2017-10-15T22:28:22.961Z,12.95
2017-10-15T22:30:50.440Z,14.55
2017-10-15T22:33:17.926Z,14.82
2017-10-15T22:35:45.390Z,15.68
2017-10-15T22:38:12.896Z,14.65
2017-10-15T22:40:40.383Z,13.52
2017-10-15T22:43:07.865Z,13.95
2017-10-15T22:45:35.357Z,14.05
2017-10-15T22:48:02.855Z,13.80
2017-10-15T22:50:30.339Z,14.10
2017-10-15T22:52:57.829Z,14.68
2017-10-15T22:55:25.320Z,13.80
2017-10-15T22:57:52.787Z,15.52
2017-10-15T23:00:20.287Z,15.00
2017-10-15T23:02:47.734Z,13.52
2017-10-15T23:05:15.228Z,16.92
2017-10-15T23:07:42.726Z,17.00
2017-10-15T23:10:10.982Z,14.82
2017-10-15T23:12:38.478Z,16.20
2017-10-15T23:15:06.844Z,15.88
2017-10-15T23:17:34.315Z,15.02
2017-10-15T23:20:01.771Z,14.45
2017-10-15T23:22:29.255Z,14.15
2017-10-15T23:24:56.745Z,14.45
2017-10-15T23:27:24.235Z,17.00
2017-10-15T23:29:52.493Z,15.80
2017-10-15T23:32:19.963Z,15.13
2017-10-15T23:34:47.438Z,15.05
2017-10-15T23:37:14.911Z,15.40
2017-10-15T23:39:42.372Z,16.85
2017-10-15T23:42:09.867Z,16.33
2017-10-15T23:44:37.327Z,17.45
2017-10-15T23:47:04.795Z,16.92
2017-10-15T23:49:33.037Z,16.30
2017-10-15T23:52:00.500Z,15.70
2017-10-15T23:54:28.000Z,16.37
2017-10-15T23:56:55.496Z,16.02
2017-10-15T23:59:22.956Z,15.32
